Time;durP1;ratioP1;P1;durP2;ratioP2;P2;SDS_P1;SDS_P2;PMS_P1;PMS_P2;Temp;Humidity;BMP_temperature;BMP_pressure;BME280_temperature;BME280_humidity;BME280_pressure;Samples;Min_cycle;Max_cycle;Signal;HPM_P1;HPM_P2
2023/05/27 00:00:25;;;;;;;0.10;0.10;;;;;;;;;;6167168;23;20020;-78
2023/05/27 00:03:11;;;;;;;0.10;0.10;;;;;;;;;;6167577;23;20016;-78
2023/05/27 00:05:56;;;;;;;0.10;0.10;;;;;;;;;;6147193;23;20017;-77
2023/05/27 00:08:42;;;;;;;0.10;0.10;;;;;;;;;;6167587;23;20095;-78
2023/05/27 00:11:28;;;;;;;0.10;0.10;;;;;;;;;;6168616;23;20013;-77
2023/05/27 00:14:13;;;;;;;0.05;0.05;;;;;;;;;;6166327;23;20133;-77
2023/05/27 00:17:01;;;;;;;0.10;0.10;;;;;;;;;;6167164;23;20025;-77
2023/05/27 00:19:48;;;;;;;0.00;0.00;;;;;;;;;;6167550;23;20403;-78
2023/05/27 00:22:34;;;;;;;0.10;0.10;;;;;;;;;;6167242;23;20443;-77
2023/05/27 00:25:20;;;;;;;0.10;0.10;;;;;;;;;;6145350;23;20020;-77
2023/05/27 00:28:06;;;;;;;0.10;0.10;;;;;;;;;;6166818;23;20021;-77
2023/05/27 00:30:52;;;;;;;0.10;0.10;;;;;;;;;;6145203;23;20036;-78
2023/05/27 00:33:40;;;;;;;0.10;0.10;;;;;;;;;;6166783;23;20024;-78
2023/05/27 00:36:25;;;;;;;0.10;0.10;;;;;;;;;;6147466;23;20076;-77
2023/05/27 00:39:11;;;;;;;0.10;0.10;;;;;;;;;;6166550;23;20027;-78
2023/05/27 00:41:57;;;;;;;0.10;0.10;;;;;;;;;;6146865;23;20021;-77
2023/05/27 00:44:43;;;;;;;0.10;0.10;;;;;;;;;;6146873;23;20086;-77
2023/05/27 00:47:30;;;;;;;0.10;0.10;;;;;;;;;;6168974;23;20115;-77
2023/05/27 00:50:17;;;;;;;0.10;0.10;;;;;;;;;;6167579;23;20029;-77
2023/05/27 00:53:03;;;;;;;0.00;0.00;;;;;;;;;;6166839;23;20028;-77
2023/05/27 00:55:52;;;;;;;0.10;0.10;;;;;;;;;;6167345;23;20071;-77
2023/05/27 00:58:38;;;;;;;0.00;0.00;;;;;;;;;;6147560;23;20021;-77
2023/05/27 01:01:25;;;;;;;0.10;0.10;;;;;;;;;;6165941;23;20469;-77
2023/05/27 01:04:12;;;;;;;0.10;0.10;;;;;;;;;;6161518;23;20494;-78
2023/05/27 01:07:15;;;;;;;0.10;0.10;;;;;;;;;;6163047;23;20017;-78
2023/05/27 01:10:08;;;;;;;0.10;0.10;;;;;;;;;;6140449;23;20498;-78
2023/05/27 01:13:01;;;;;;;0.10;0.10;;;;;;;;;;6139290;23;20020;-78
2023/05/27 01:15:49;;;;;;;0.10;0.10;;;;;;;;;;6141241;23;20020;-78
2023/05/27 01:18:37;;;;;;;0.10;0.10;;;;;;;;;;6140454;23;20333;-78
2023/05/27 01:21:24;;;;;;;0.10;0.10;;;;;;;;;;6160428;23;20021;-78
2023/05/27 01:24:10;;;;;;;0.00;0.00;;;;;;;;;;6140625;23;20065;-78
2023/05/27 01:26:56;;;;;;;0.10;0.10;;;;;;;;;;6140676;23;20835;-78
2023/05/27 01:29:42;;;;;;;0.10;0.10;;;;;;;;;;6140649;23;20020;-78
2023/05/27 01:32:33;;;;;;;0.10;0.10;;;;;;;;;;6137471;23;20024;-78
2023/05/27 01:35:38;;;;;;;0.10;0.10;;;;;;;;;;6160114;23;20017;-78
2023/05/27 01:38:25;;;;;;;0.10;0.10;;;;;;;;;;6160154;23;20351;-78
2023/05/27 01:41:12;;;;;;;0.10;0.10;;;;;;;;;;6159941;23;20390;-78
2023/05/27 01:43:58;;;;;;;0.10;0.10;;;;;;;;;;6141072;23;21019;-78
2023/05/27 01:46:44;;;;;;;0.10;0.10;;;;;;;;;;6159609;23;20824;-78
2023/05/27 01:49:32;;;;;;;0.10;0.10;;;;;;;;;;6138329;23;20021;-78
2023/05/27 01:52:18;;;;;;;0.10;0.10;;;;;;;;;;6160292;23;20501;-78
2023/05/27 01:55:05;;;;;;;0.00;0.00;;;;;;;;;;6160406;23;20023;-78
2023/05/27 01:57:51;;;;;;;0.10;0.10;;;;;;;;;;6138790;23;20013;-78
2023/05/27 02:00:37;;;;;;;0.10;0.10;;;;;;;;;;6140893;23;20032;-79
2023/05/27 02:03:23;;;;;;;0.10;0.10;;;;;;;;;;6138653;23;20088;-79
2023/05/27 02:06:08;;;;;;;0.10;0.10;;;;;;;;;;6160533;23;20013;-78
2023/05/27 02:08:58;;;;;;;0.10;0.10;;;;;;;;;;6141177;23;20021;-78
2023/05/27 02:11:43;;;;;;;0.10;0.10;;;;;;;;;;6141075;23;20017;-78
2023/05/27 02:14:30;;;;;;;0.10;0.10;;;;;;;;;;6137441;23;20017;-78
2023/05/27 02:17:17;;;;;;;0.10;0.10;;;;;;;;;;6140433;23;20465;-78
2023/05/27 02:20:03;;;;;;;0.10;0.10;;;;;;;;;;6141468;23;20017;-78
2023/05/27 02:22:50;;;;;;;0.10;0.10;;;;;;;;;;6141426;23;20023;-77
2023/05/27 02:25:35;;;;;;;0.10;0.10;;;;;;;;;;6138665;23;20021;-78
2023/05/27 02:28:21;;;;;;;0.10;0.10;;;;;;;;;;6140192;23;20071;-78
2023/05/27 02:31:07;;;;;;;0.10;0.10;;;;;;;;;;6140379;23;20158;-78
2023/05/27 02:33:52;;;;;;;0.10;0.10;;;;;;;;;;6159319;23;20455;-77
2023/05/27 02:36:38;;;;;;;0.10;0.10;;;;;;;;;;6161922;23;20017;-77
2023/05/27 02:39:25;;;;;;;0.10;0.10;;;;;;;;;;6141934;23;20067;-77
2023/05/27 02:42:11;;;;;;;0.10;0.10;;;;;;;;;;6142143;23;20514;-78
2023/05/27 02:44:57;;;;;;;0.10;0.10;;;;;;;;;;6121633;23;20023;-77
2023/05/27 02:47:43;;;;;;;0.10;0.10;;;;;;;;;;6161916;23;20013;-77
2023/05/27 02:50:30;;;;;;;0.10;0.10;;;;;;;;;;6161879;23;20560;-77
2023/05/27 02:53:16;;;;;;;0.10;0.10;;;;;;;;;;6141770;23;20017;-77
2023/05/27 02:56:03;;;;;;;0.10;0.10;;;;;;;;;;6142673;23;20017;-77
2023/05/27 02:58:48;;;;;;;0.10;0.10;;;;;;;;;;6142361;23;20512;-77
2023/05/27 03:01:34;;;;;;;0.10;0.10;;;;;;;;;;6142139;23;20464;-77
2023/05/27 03:04:21;;;;;;;0.10;0.10;;;;;;;;;;6160775;23;20529;-77
2023/05/27 03:07:09;;;;;;;0.10;0.10;;;;;;;;;;6163038;23;20710;-77
2023/05/27 03:09:55;;;;;;;0.10;0.10;;;;;;;;;;6142678;23;20654;-77
2023/05/27 03:12:41;;;;;;;0.10;0.10;;;;;;;;;;6140388;23;20036;-77
2023/05/27 03:15:31;;;;;;;0.10;0.10;;;;;;;;;;6161204;23;20013;-77
2023/05/27 03:18:17;;;;;;;0.10;0.10;;;;;;;;;;6138697;23;20029;-77
2023/05/27 03:21:03;;;;;;;0.10;0.10;;;;;;;;;;6142888;23;20486;-77
2023/05/27 03:23:49;;;;;;;0.10;0.10;;;;;;;;;;6139443;23;20013;-77
2023/05/27 03:26:35;;;;;;;0.10;0.10;;;;;;;;;;6161236;23;20024;-77
2023/05/27 03:29:24;;;;;;;0.10;0.10;;;;;;;;;;6139789;23;20613;-77
2023/05/27 03:32:09;;;;;;;0.10;0.10;;;;;;;;;;6162641;23;20477;-77
2023/05/27 03:34:55;;;;;;;0.10;0.10;;;;;;;;;;6139600;23;20179;-77
2023/05/27 03:37:42;;;;;;;0.10;0.10;;;;;;;;;;6140881;23;20072;-77
2023/05/27 03:40:28;;;;;;;0.10;0.10;;;;;;;;;;6140566;23;20024;-77
2023/05/27 03:43:14;;;;;;;0.10;0.10;;;;;;;;;;6139414;23;20017;-78
2023/05/27 03:46:01;;;;;;;0.10;0.10;;;;;;;;;;6120146;23;20044;-77
2023/05/27 03:48:47;;;;;;;0.10;0.10;;;;;;;;;;6119367;23;20072;-77
2023/05/27 03:51:33;;;;;;;0.10;0.10;;;;;;;;;;6161147;23;20520;-77
2023/05/27 03:54:18;;;;;;;0.10;0.10;;;;;;;;;;6140622;23;20017;-77
2023/05/27 03:57:07;;;;;;;0.10;0.10;;;;;;;;;;6141975;23;20017;-77
2023/05/27 03:59:52;;;;;;;0.10;0.10;;;;;;;;;;6162201;23;20017;-78
2023/05/27 04:02:39;;;;;;;0.10;0.10;;;;;;;;;;6121714;23;20055;-77
2023/05/27 04:05:25;;;;;;;0.10;0.10;;;;;;;;;;6142075;23;20024;-77
2023/05/27 04:08:13;;;;;;;0.10;0.10;;;;;;;;;;6143173;23;20021;-77
2023/05/27 04:11:00;;;;;;;0.10;0.10;;;;;;;;;;6142973;23;20017;-77
2023/05/27 04:13:48;;;;;;;0.10;0.10;;;;;;;;;;6143511;23;20016;-77
2023/05/27 04:16:35;;;;;;;0.10;0.10;;;;;;;;;;6143057;23;20090;-77
2023/05/27 04:19:20;;;;;;;0.10;0.10;;;;;;;;;;6161681;23;20059;-78
2023/05/27 04:22:07;;;;;;;0.10;0.10;;;;;;;;;;6142500;23;20017;-77
2023/05/27 04:24:53;;;;;;;0.10;0.10;;;;;;;;;;6142768;23;20017;-77
2023/05/27 04:27:39;;;;;;;0.10;0.10;;;;;;;;;;6141981;23;20052;-77
2023/05/27 04:30:26;;;;;;;0.10;0.10;;;;;;;;;;6141797;23;20025;-77
2023/05/27 04:33:14;;;;;;;0.10;0.10;;;;;;;;;;6142604;23;20021;-77
2023/05/27 04:36:02;;;;;;;0.10;0.10;;;;;;;;;;6141079;23;20017;-76
2023/05/27 04:38:52;;;;;;;0.10;0.10;;;;;;;;;;6142663;23;20024;-76
2023/05/27 04:41:39;;;;;;;0.10;0.10;;;;;;;;;;6140712;23;20107;-77
2023/05/27 04:44:26;;;;;;;0.10;0.10;;;;;;;;;;6160804;23;20120;-76
2023/05/27 04:47:14;;;;;;;0.10;0.10;;;;;;;;;;6142040;23;20017;-76
2023/05/27 04:50:03;;;;;;;0.10;0.10;;;;;;;;;;6142572;23;20131;-77
2023/05/27 04:52:49;;;;;;;0.10;0.10;;;;;;;;;;6143162;23;20640;-76
2023/05/27 04:55:36;;;;;;;0.10;0.10;;;;;;;;;;6140812;23;20059;-76
2023/05/27 04:58:22;;;;;;;0.10;0.10;;;;;;;;;;6141980;23;20079;-76
2023/05/27 05:01:17;;;;;;;0.10;0.10;;;;;;;;;;6121191;23;20043;-76
2023/05/27 05:04:12;;;;;;;0.10;0.10;;;;;;;;;;6142572;23;20017;-77
2023/05/27 05:07:11;;;;;;;0.10;0.10;;;;;;;;;;6142982;23;20013;-77
2023/05/27 05:09:59;;;;;;;0.10;0.10;;;;;;;;;;6140598;23;20025;-77
2023/05/27 05:12:52;;;;;;;0.10;0.10;;;;;;;;;;6142952;23;20447;-77
2023/05/27 05:15:39;;;;;;;0.10;0.10;;;;;;;;;;6143081;23;20031;-77
2023/05/27 05:18:25;;;;;;;0.10;0.10;;;;;;;;;;6141700;23;20724;-76
2023/05/27 05:21:12;;;;;;;0.10;0.10;;;;;;;;;;6142498;23;20013;-78
2023/05/27 05:24:00;;;;;;;0.10;0.10;;;;;;;;;;6140171;23;20013;-77
2023/05/27 05:26:46;;;;;;;0.10;0.10;;;;;;;;;;6120750;23;20013;-77
2023/05/27 05:29:31;;;;;;;0.10;0.10;;;;;;;;;;6141115;23;20023;-78
2023/05/27 05:32:18;;;;;;;0.10;0.10;;;;;;;;;;6139431;23;20433;-77
2023/05/27 05:35:04;;;;;;;0.10;0.10;;;;;;;;;;6162979;23;20021;-77
2023/05/27 05:37:50;;;;;;;0.10;0.10;;;;;;;;;;6141373;23;20096;-77
2023/05/27 05:40:37;;;;;;;0.10;0.10;;;;;;;;;;6142411;23;20096;-77
2023/05/27 05:43:41;;;;;;;0.10;0.10;;;;;;;;;;6145121;23;20584;-77
2023/05/27 05:46:27;;;;;;;0.10;0.10;;;;;;;;;;6144495;23;20013;-77
2023/05/27 05:49:13;;;;;;;0.10;0.10;;;;;;;;;;6142158;23;20049;-77
2023/05/27 05:52:02;;;;;;;0.10;0.10;;;;;;;;;;6141299;23;20017;-77
2023/05/27 05:54:48;;;;;;;0.10;0.10;;;;;;;;;;6161359;23;20017;-78
2023/05/27 05:57:34;;;;;;;0.10;0.10;;;;;;;;;;6140638;23;20059;-78
2023/05/27 06:00:22;;;;;;;0.10;0.10;;;;;;;;;;6139810;23;20017;-77
2023/05/27 06:03:11;;;;;;;0.10;0.10;;;;;;;;;;6142817;23;20013;-78
2023/05/27 06:06:07;;;;;;;0.10;0.10;;;;;;;;;;6142306;23;20910;-77
2023/05/27 06:09:00;;;;;;;0.10;0.10;;;;;;;;;;6140956;23;20020;-77
2023/05/27 06:11:46;;;;;;;0.10;0.10;;;;;;;;;;6142593;23;20502;-77
2023/05/27 06:14:32;;;;;;;0.10;0.10;;;;;;;;;;6141958;23;20032;-77
2023/05/27 06:17:19;;;;;;;0.10;0.10;;;;;;;;;;6134005;23;20106;-77
2023/05/27 06:20:06;;;;;;;0.10;0.10;;;;;;;;;;6131184;23;20021;-77
2023/05/27 06:22:53;;;;;;;0.10;0.10;;;;;;;;;;6132535;23;20017;-77
2023/05/27 06:25:50;;;;;;;0.10;0.10;;;;;;;;;;6133330;23;20017;-77
2023/05/27 06:28:37;;;;;;;0.10;0.10;;;;;;;;;;6130042;23;20779;-77
2023/05/27 06:31:23;;;;;;;0.10;0.10;;;;;;;;;;6131351;23;20017;-77
2023/05/27 06:34:08;;;;;;;0.10;0.10;;;;;;;;;;6131788;23;20028;-78
2023/05/27 06:36:57;;;;;;;0.10;0.10;;;;;;;;;;6135917;23;20021;-78
2023/05/27 06:39:43;;;;;;;0.10;0.10;;;;;;;;;;6132285;23;20026;-78
2023/05/27 06:42:31;;;;;;;0.10;0.10;;;;;;;;;;6130806;23;20075;-78
2023/05/27 06:45:46;;;;;;;0.10;0.10;;;;;;;;;;6129109;23;20013;-78
2023/05/27 06:48:52;;;;;;;0.10;0.10;;;;;;;;;;6131253;23;20032;-78
2023/05/27 06:51:38;;;;;;;0.10;0.10;;;;;;;;;;6110963;23;20503;-78
2023/05/27 06:54:24;;;;;;;0.10;0.10;;;;;;;;;;6129983;23;20020;-78
2023/05/27 06:57:15;;;;;;;0.10;0.10;;;;;;;;;;6131927;23;20049;-78
2023/05/27 07:00:16;;;;;;;0.10;0.10;;;;;;;;;;6129410;23;20048;-78
2023/05/27 07:03:15;;;;;;;0.10;0.10;;;;;;;;;;6132810;23;20478;-79
2023/05/27 07:06:01;;;;;;;0.10;0.10;;;;;;;;;;6131007;23;20022;-78
2023/05/27 07:08:51;;;;;;;0.10;0.10;;;;;;;;;;6130609;23;20022;-78
2023/05/27 07:11:51;;;;;;;0.10;0.10;;;;;;;;;;6133151;23;20779;-77
2023/05/27 07:14:55;;;;;;;0.10;0.10;;;;;;;;;;6132475;23;20013;-77
2023/05/27 07:17:44;;;;;;;0.10;0.10;;;;;;;;;;6129972;23;20785;-78
2023/05/27 07:20:30;;;;;;;0.10;0.10;;;;;;;;;;6130026;23;20013;-78
2023/05/27 07:23:16;;;;;;;0.10;0.10;;;;;;;;;;6129194;23;20933;-78
2023/05/27 07:26:05;;;;;;;0.10;0.10;;;;;;;;;;6111817;23;20018;-78
2023/05/27 07:28:51;;;;;;;0.10;0.10;;;;;;;;;;6112199;23;20029;-78
2023/05/27 07:31:43;;;;;;;0.10;0.10;;;;;;;;;;6131180;23;20021;-78
2023/05/27 07:34:33;;;;;;;0.10;0.10;;;;;;;;;;6130387;23;20100;-77
2023/05/27 07:37:19;;;;;;;0.10;0.10;;;;;;;;;;6132125;23;20018;-78
2023/05/27 07:40:05;;;;;;;0.10;0.10;;;;;;;;;;6133173;23;20092;-78
2023/05/27 07:42:54;;;;;;;0.10;0.10;;;;;;;;;;6130565;23;20014;-78
2023/05/27 07:45:40;;;;;;;0.10;0.10;;;;;;;;;;6131563;23;20017;-78
2023/05/27 07:48:27;;;;;;;0.10;0.10;;;;;;;;;;6131118;23;20116;-79
2023/05/27 07:51:13;;;;;;;0.10;0.10;;;;;;;;;;6133813;23;20017;-78
2023/05/27 07:53:59;;;;;;;0.10;0.10;;;;;;;;;;6130986;23;20702;-78
2023/05/27 07:56:45;;;;;;;0.10;0.10;;;;;;;;;;6131268;23;20014;-78
2023/05/27 07:59:31;;;;;;;0.10;0.10;;;;;;;;;;6130618;23;20080;-79
2023/05/27 08:02:16;;;;;;;0.10;0.10;;;;;;;;;;6130343;23;20052;-78
2023/05/27 08:05:07;;;;;;;0.10;0.10;;;;;;;;;;6131099;23;20013;-79
2023/05/27 08:08:05;;;;;;;0.10;0.10;;;;;;;;;;6129706;23;20029;-79
2023/05/27 08:11:10;;;;;;;0.10;0.10;;;;;;;;;;6132328;23;20024;-78
2023/05/27 08:14:07;;;;;;;0.10;0.10;;;;;;;;;;6132048;23;20124;-79
2023/05/27 08:17:01;;;;;;;0.10;0.10;;;;;;;;;;6137507;23;20027;-78
2023/05/27 08:20:08;;;;;;;0.10;0.10;;;;;;;;;;6163990;23;20048;-79
2023/05/27 08:23:12;;;;;;;0.10;0.10;;;;;;;;;;6161821;23;20095;-79
2023/05/27 08:26:16;;;;;;;0.10;0.10;;;;;;;;;;6161326;23;20017;-78
2023/05/27 08:29:27;;;;;;;0.10;0.10;;;;;;;;;;6160725;23;20702;-79
2023/05/27 08:32:42;;;;;;;0.10;0.10;;;;;;;;;;6126826;23;20080;-79
2023/05/27 08:35:27;;;;;;;0.10;0.10;;;;;;;;;;6160639;23;20797;-79
2023/05/27 08:38:13;;;;;;;0.10;0.10;;;;;;;;;;6120019;23;20122;-78
2023/05/27 08:41:00;;;;;;;0.10;0.10;;;;;;;;;;6142036;23;20016;-78
2023/05/27 08:43:46;;;;;;;0.10;0.10;;;;;;;;;;6142483;23;20024;-79
2023/05/27 08:46:34;;;;;;;0.10;0.10;;;;;;;;;;6141640;23;20048;-78
2023/05/27 08:49:20;;;;;;;0.10;0.10;;;;;;;;;;6139579;23;20132;-78
2023/05/27 08:52:06;;;;;;;0.10;0.10;;;;;;;;;;6162059;23;20013;-79
2023/05/27 08:54:53;;;;;;;0.10;0.10;;;;;;;;;;6163103;23;20421;-78
2023/05/27 08:57:43;;;;;;;0.10;0.10;;;;;;;;;;6139512;23;20045;-78
2023/05/27 09:00:29;;;;;;;0.10;0.10;;;;;;;;;;6138532;23;20067;-78
2023/05/27 09:03:20;;;;;;;0.10;0.10;;;;;;;;;;6141823;23;20765;-79
2023/05/27 09:06:05;;;;;;;0.10;0.10;;;;;;;;;;6142871;23;20017;-78
2023/05/27 09:08:51;;;;;;;0.10;0.10;;;;;;;;;;6162696;23;20028;-78
2023/05/27 09:11:38;;;;;;;0.10;0.10;;;;;;;;;;6155920;23;20039;-79
2023/05/27 09:14:24;;;;;;;0.10;0.10;;;;;;;;;;6162397;23;20445;-79
2023/05/27 09:17:10;;;;;;;0.10;0.10;;;;;;;;;;6163437;23;20021;-78
2023/05/27 09:19:55;;;;;;;0.10;0.10;;;;;;;;;;6160923;23;20827;-78
2023/05/27 09:22:41;;;;;;;0.10;0.10;;;;;;;;;;6162432;23;20009;-78
2023/05/27 09:25:27;;;;;;;0.10;0.10;;;;;;;;;;6161899;23;20013;-79
2023/05/27 09:28:20;;;;;;;0.10;0.10;;;;;;;;;;6161444;23;20024;-78
2023/05/27 09:31:06;;;;;;;0.10;0.10;;;;;;;;;;6160082;23;20279;-78
2023/05/27 09:33:52;;;;;;;0.10;0.10;;;;;;;;;;6160992;23;20009;-79
2023/05/27 09:36:45;;;;;;;0.10;0.10;;;;;;;;;;6160221;23;20063;-77
2023/05/27 09:39:34;;;;;;;0.10;0.10;;;;;;;;;;6161850;23;20409;-77
2023/05/27 09:42:20;;;;;;;0.10;0.10;;;;;;;;;;6163372;23;20446;-77
2023/05/27 09:45:09;;;;;;;0.10;0.10;;;;;;;;;;6162579;23;20092;-78
2023/05/27 09:47:56;;;;;;;0.10;0.10;;;;;;;;;;6162738;23;20093;-79
2023/05/27 09:50:42;;;;;;;0.10;0.10;;;;;;;;;;6162547;23;20347;-78
2023/05/27 09:53:28;;;;;;;0.10;0.10;;;;;;;;;;6161361;23;20013;-78
2023/05/27 09:56:14;;;;;;;0.10;0.10;;;;;;;;;;6142104;23;20393;-78
2023/05/27 09:59:00;;;;;;;0.10;0.10;;;;;;;;;;6140073;23;20700;-78
2023/05/27 10:01:47;;;;;;;0.10;0.10;;;;;;;;;;6162284;23;20013;-78
2023/05/27 10:04:33;;;;;;;0.10;0.10;;;;;;;;;;6162783;23;20023;-77
2023/05/27 10:07:21;;;;;;;0.10;0.10;;;;;;;;;;6160900;23;20013;-78
2023/05/27 10:10:08;;;;;;;0.10;0.10;;;;;;;;;;6162382;23;20112;-78
2023/05/27 10:12:54;;;;;;;0.10;0.10;;;;;;;;;;6163910;23;20017;-78
2023/05/27 10:15:45;;;;;;;0.10;0.10;;;;;;;;;;6161965;23;20763;-77
2023/05/27 10:18:33;;;;;;;;;;;;;;;;;;6162675;23;20439;-78
2023/05/27 10:21:20;;;;;;;0.10;0.10;;;;;;;;;;6162131;23;20293;-77
2023/05/27 10:24:09;;;;;;;0.10;0.10;;;;;;;;;;6162324;23;20013;-78
2023/05/27 10:27:02;;;;;;;0.10;0.10;;;;;;;;;;6142575;23;20044;-77
2023/05/27 10:29:56;;;;;;;0.10;0.10;;;;;;;;;;6140862;23;20092;-77
2023/05/27 10:32:43;;;;;;;0.10;0.10;;;;;;;;;;6162586;23;20020;-77
2023/05/27 10:35:40;;;;;;;0.10;0.10;;;;;;;;;;6161927;23;20009;-77
2023/05/27 10:38:26;;;;;;;0.10;0.10;;;;;;;;;;6162130;23;20348;-77
2023/05/27 10:41:12;;;;;;;0.10;0.10;;;;;;;;;;6161528;23;20838;-78
2023/05/27 10:43:58;;;;;;;0.10;0.10;;;;;;;;;;6162115;23;20024;-77
2023/05/27 10:46:44;;;;;;;0.10;0.10;;;;;;;;;;6162426;23;20421;-79
2023/05/27 10:49:38;;;;;;;0.10;0.10;;;;;;;;;;6139722;23;20028;-77
2023/05/27 10:52:26;;;;;;;0.10;0.10;;;;;;;;;;6163838;23;20096;-77
2023/05/27 10:55:13;;;;;;;0.10;0.10;;;;;;;;;;6166947;23;20728;-79
2023/05/27 10:57:59;;;;;;;0.10;0.10;;;;;;;;;;6164016;23;20009;-77
2023/05/27 11:00:47;;;;;;;0.10;0.10;;;;;;;;;;6163122;23;20017;-77
2023/05/27 11:03:33;;;;;;;0.10;0.10;;;;;;;;;;6164224;23;20013;-78
2023/05/27 11:06:18;;;;;;;0.10;0.10;;;;;;;;;;6142519;23;20789;-78
2023/05/27 11:09:05;;;;;;;0.10;0.10;;;;;;;;;;6165676;23;20021;-78
2023/05/27 11:11:50;;;;;;;0.10;0.10;;;;;;;;;;6164110;23;20525;-79
2023/05/27 11:14:36;;;;;;;0.10;0.10;;;;;;;;;;6162028;23;20500;-79
2023/05/27 11:17:22;;;;;;;0.10;0.10;;;;;;;;;;6162838;23;20088;-78
2023/05/27 11:20:08;;;;;;;0.10;0.10;;;;;;;;;;6164471;23;20338;-79
2023/05/27 11:22:54;;;;;;;0.10;0.10;;;;;;;;;;6164956;23;20271;-77
2023/05/27 11:25:40;;;;;;;0.10;0.10;;;;;;;;;;6162264;23;20024;-78
2023/05/27 11:28:26;;;;;;;0.10;0.10;;;;;;;;;;6140071;23;20024;-78
2023/05/27 11:31:12;;;;;;;0.20;0.20;;;;;;;;;;6140729;23;20012;-79
2023/05/27 11:33:58;;;;;;;0.10;0.10;;;;;;;;;;6162602;23;20332;-77
2023/05/27 11:36:45;;;;;;;0.10;0.10;;;;;;;;;;6162160;23;20404;-76
2023/05/27 11:39:31;;;;;;;0.10;0.10;;;;;;;;;;6160911;23;20013;-78
2023/05/27 11:42:20;;;;;;;0.10;0.10;;;;;;;;;;6121421;23;20328;-79
2023/05/27 11:45:14;;;;;;;0.10;0.10;;;;;;;;;;6164440;23;20020;-79
2023/05/27 11:47:59;;;;;;;0.10;0.10;;;;;;;;;;6163789;23;20305;-78
2023/05/27 11:50:47;;;;;;;0.10;0.10;;;;;;;;;;6162264;23;20028;-78
2023/05/27 11:53:34;;;;;;;0.10;0.10;;;;;;;;;;6160800;23;20016;-78
2023/05/27 11:56:22;;;;;;;0.10;0.10;;;;;;;;;;6161210;23;20095;-79
2023/05/27 11:59:08;;;;;;;0.10;0.10;;;;;;;;;;6162649;23;20023;-78
2023/05/27 12:01:54;;;;;;;0.10;0.10;;;;;;;;;;6141842;23;20663;-79
2023/05/27 12:04:39;;;;;;;0.10;0.10;;;;;;;;;;6159961;23;20113;-77
2023/05/27 12:07:25;;;;;;;0.10;0.10;;;;;;;;;;6161170;23;20021;-79
2023/05/27 12:10:11;;;;;;;0.10;0.10;;;;;;;;;;6161772;23;20021;-78
2023/05/27 12:13:03;;;;;;;0.10;0.10;;;;;;;;;;6162755;23;20017;-78
2023/05/27 12:15:49;;;;;;;0.10;0.10;;;;;;;;;;6163346;23;20063;-79
2023/05/27 12:18:36;;;;;;;0.10;0.10;;;;;;;;;;6160136;23;20033;-79
2023/05/27 12:21:22;;;;;;;0.10;0.10;;;;;;;;;;6161543;23;20017;-78
2023/05/27 12:24:07;;;;;;;0.20;0.20;;;;;;;;;;6162669;23;20020;-78
2023/05/27 12:26:53;;;;;;;0.10;0.10;;;;;;;;;;6161013;23;20028;-78
2023/05/27 12:29:39;;;;;;;0.10;0.10;;;;;;;;;;6163512;23;20044;-78
2023/05/27 12:32:25;;;;;;;0.10;0.10;;;;;;;;;;6159406;23;20017;-79
2023/05/27 12:35:11;;;;;;;0.10;0.10;;;;;;;;;;6161609;23;20115;-79
2023/05/27 12:37:57;;;;;;;0.15;0.15;;;;;;;;;;6163408;23;20016;-79
2023/05/27 12:40:43;;;;;;;0.10;0.10;;;;;;;;;;6160726;23;20315;-79
2023/05/27 12:43:29;;;;;;;0.10;0.10;;;;;;;;;;6160352;23;20027;-79
2023/05/27 12:46:14;;;;;;;0.10;0.10;;;;;;;;;;6162502;23;20132;-79
2023/05/27 12:49:00;;;;;;;0.10;0.10;;;;;;;;;;6161433;23;20465;-79
2023/05/27 12:51:46;;;;;;;0.10;0.10;;;;;;;;;;6161916;23;20017;-79
2023/05/27 12:54:31;;;;;;;0.10;0.10;;;;;;;;;;6140838;23;20017;-78
2023/05/27 12:57:17;;;;;;;0.10;0.10;;;;;;;;;;6161786;23;20099;-80
2023/05/27 13:00:03;;;;;;;0.10;0.10;;;;;;;;;;6160380;23;20048;-80
2023/05/27 13:02:50;;;;;;;0.10;0.10;;;;;;;;;;6160387;23;20473;-78
2023/05/27 13:05:35;;;;;;;0.00;0.00;;;;;;;;;;6162401;23;20017;-79
2023/05/27 13:08:21;;;;;;;0.10;0.10;;;;;;;;;;6160345;23;20112;-77
2023/05/27 13:11:07;;;;;;;0.10;0.10;;;;;;;;;;6161593;23;20344;-79
2023/05/27 13:13:53;;;;;;;0.10;0.10;;;;;;;;;;6162899;23;20017;-79
2023/05/27 13:16:38;;;;;;;0.10;0.10;;;;;;;;;;6159661;23;20017;-78
2023/05/27 13:19:24;;;;;;;0.03;0.03;;;;;;;;;;6101376;23;20033;-80
2023/05/27 13:22:10;;;;;;;0.10;0.10;;;;;;;;;;6101436;23;20021;-78
2023/05/27 13:24:56;;;;;;;0.10;0.10;;;;;;;;;;6103612;23;20357;-79
2023/05/27 13:27:42;;;;;;;0.10;0.10;;;;;;;;;;6101942;23;20018;-80
2023/05/27 13:30:28;;;;;;;0.10;0.10;;;;;;;;;;6101117;23;20344;-80
2023/05/27 13:33:15;;;;;;;0.10;0.10;;;;;;;;;;6102417;23;20331;-78
2023/05/27 13:36:00;;;;;;;0.10;0.10;;;;;;;;;;6101939;23;20014;-79
2023/05/27 13:38:46;;;;;;;0.10;0.10;;;;;;;;;;6102274;23;20286;-78
2023/05/27 13:41:32;;;;;;;0.10;0.10;;;;;;;;;;6100896;23;20475;-78
2023/05/27 13:44:18;;;;;;;0.10;0.10;;;;;;;;;;6102304;23;20018;-78
2023/05/27 13:47:04;;;;;;;0.10;0.10;;;;;;;;;;6102151;23;20297;-79
2023/05/27 13:49:51;;;;;;;0.10;0.10;;;;;;;;;;6102065;23;20025;-78
2023/05/27 13:52:36;;;;;;;0.10;0.10;;;;;;;;;;6101931;23;20383;-78
2023/05/27 13:55:22;;;;;;;0.10;0.10;;;;;;;;;;6099075;23;20017;-80
2023/05/27 13:58:08;;;;;;;0.10;0.10;;;;;;;;;;6101929;23;20041;-79
2023/05/27 14:00:53;;;;;;;0.10;0.10;;;;;;;;;;6101760;23;20053;-79
2023/05/27 14:03:39;;;;;;;0.10;0.10;;;;;;;;;;6101173;23;20024;-79
2023/05/27 14:06:25;;;;;;;0.05;0.05;;;;;;;;;;6080867;23;20416;-79
2023/05/27 14:09:11;;;;;;;0.10;0.10;;;;;;;;;;6100794;23;20022;-80
2023/05/27 14:11:57;;;;;;;0.10;0.10;;;;;;;;;;6103065;23;20037;-78
2023/05/27 14:14:43;;;;;;;0.10;0.10;;;;;;;;;;6101886;23;20100;-79
2023/05/27 14:17:29;;;;;;;0.10;0.10;;;;;;;;;;6118546;23;20025;-79
2023/05/27 14:20:16;;;;;;;0.10;0.10;;;;;;;;;;6161202;23;20029;-79
2023/05/27 14:23:04;;;;;;;0.10;0.10;;;;;;;;;;6161036;23;20061;-78
2023/05/27 14:25:49;;;;;;;0.10;0.10;;;;;;;;;;6160459;23;20453;-79
2023/05/27 14:28:35;;;;;;;0.10;0.10;;;;;;;;;;6161153;23;20025;-79
2023/05/27 14:31:21;;;;;;;0.10;0.10;;;;;;;;;;6160378;23;20021;-79
2023/05/27 14:34:07;;;;;;;0.00;0.00;;;;;;;;;;6164658;23;20117;-78
2023/05/27 14:36:53;;;;;;;0.10;0.10;;;;;;;;;;6162134;23;20043;-78
2023/05/27 14:39:38;;;;;;;0.00;0.00;;;;;;;;;;6162374;23;20021;-78
2023/05/27 14:42:24;;;;;;;0.10;0.10;;;;;;;;;;6161785;23;20020;-80
2023/05/27 14:45:10;;;;;;;0.10;0.10;;;;;;;;;;6142961;23;20046;-80
2023/05/27 14:47:56;;;;;;;0.20;0.20;;;;;;;;;;6163084;23;20583;-78
2023/05/27 14:50:41;;;;;;;0.00;0.00;;;;;;;;;;6161805;23;20359;-78
2023/05/27 14:53:27;;;;;;;0.10;0.10;;;;;;;;;;6142900;23;20112;-78
2023/05/27 14:56:13;;;;;;;0.10;0.10;;;;;;;;;;6142885;23;20118;-80
2023/05/27 14:58:59;;;;;;;0.10;0.10;;;;;;;;;;6163464;23;20071;-79
2023/05/27 15:01:44;;;;;;;0.10;0.10;;;;;;;;;;6162239;23;20322;-79
2023/05/27 15:04:30;;;;;;;0.10;0.10;;;;;;;;;;6140489;23;20383;-78
2023/05/27 15:07:18;;;;;;;0.10;0.10;;;;;;;;;;6139792;23;20345;-79
2023/05/27 15:10:05;;;;;;;0.10;0.10;;;;;;;;;;6162152;23;20021;-78
2023/05/27 15:12:51;;;;;;;0.05;0.05;;;;;;;;;;6163969;23;20067;-78
2023/05/27 15:15:39;;;;;;;0.05;0.05;;;;;;;;;;6163086;23;20521;-78
2023/05/27 15:18:25;;;;;;;0.10;0.10;;;;;;;;;;6142190;23;20446;-77
2023/05/27 15:21:11;;;;;;;0.10;0.10;;;;;;;;;;6164966;23;20009;-78
2023/05/27 15:23:56;;;;;;;0.05;0.05;;;;;;;;;;6162122;23;20028;-80
2023/05/27 15:26:42;;;;;;;0.10;0.10;;;;;;;;;;6164035;23;20013;-77
2023/05/27 15:29:28;;;;;;;0.10;0.10;;;;;;;;;;6145655;23;20021;-78
2023/05/27 15:32:14;;;;;;;0.10;0.10;;;;;;;;;;6165818;23;20029;-79
2023/05/27 15:35:03;;;;;;;0.00;0.00;;;;;;;;;;6162383;23;20243;-80
2023/05/27 15:37:49;;;;;;;0.00;0.00;;;;;;;;;;6163222;23;20509;-79
2023/05/27 15:40:38;;;;;;;0.00;0.00;;;;;;;;;;6141602;23;20330;-78
2023/05/27 15:43:23;;;;;;;0.10;0.10;;;;;;;;;;6141678;23;20020;-78
2023/05/27 15:46:09;;;;;;;0.10;0.10;;;;;;;;;;6162030;23;20044;-80
2023/05/27 15:48:55;;;;;;;0.10;0.10;;;;;;;;;;6164669;23;20027;-78
2023/05/27 15:51:43;;;;;;;0.10;0.10;;;;;;;;;;6161678;23;20017;-79
2023/05/27 15:54:29;;;;;;;0.10;0.10;;;;;;;;;;6164185;23;20013;-78
2023/05/27 15:57:15;;;;;;;0.10;0.10;;;;;;;;;;6163454;23;20013;-79
2023/05/27 16:00:01;;;;;;;0.10;0.10;;;;;;;;;;6160251;23;20395;-80
2023/05/27 16:02:46;;;;;;;0.00;0.00;;;;;;;;;;6160835;23;20021;-78
2023/05/27 16:05:32;;;;;;;0.10;0.10;;;;;;;;;;6160981;23;20310;-79
2023/05/27 16:08:18;;;;;;;0.10;0.10;;;;;;;;;;6162598;23;20481;-78
2023/05/27 16:11:04;;;;;;;0.08;0.08;;;;;;;;;;6140797;23;20132;-78
2023/05/27 16:13:49;;;;;;;0.10;0.10;;;;;;;;;;6140998;23;20340;-79
2023/05/27 16:16:35;;;;;;;0.10;0.10;;;;;;;;;;6141130;23;20025;-78
2023/05/27 16:19:21;;;;;;;0.10;0.10;;;;;;;;;;6161842;23;20028;-79
2023/05/27 16:22:06;;;;;;;0.10;0.10;;;;;;;;;;6165074;23;20016;-78
2023/05/27 16:24:52;;;;;;;0.10;0.10;;;;;;;;;;6162418;23;20328;-79
2023/05/27 16:27:38;;;;;;;0.10;0.10;;;;;;;;;;6161695;23;20051;-78
2023/05/27 16:30:25;;;;;;;0.10;0.10;;;;;;;;;;6159884;23;20028;-79
2023/05/27 16:33:10;;;;;;;0.10;0.10;;;;;;;;;;6162465;23;20023;-79
2023/05/27 16:35:56;;;;;;;0.03;0.03;;;;;;;;;;6162032;23;20013;-79
2023/05/27 16:38:42;;;;;;;0.00;0.00;;;;;;;;;;6139614;23;20024;-79
2023/05/27 16:41:27;;;;;;;0.05;0.05;;;;;;;;;;6141643;23;20473;-77
2023/05/27 16:44:13;;;;;;;0.10;0.10;;;;;;;;;;6162152;23;20025;-78